createdAt,value
2022-12-28T00:02:13.184Z,99229.22
2022-12-28T00:04:40.705Z,99224.25
2022-12-28T00:07:08.247Z,99225.13
2022-12-28T00:09:35.722Z,99217.34
2022-12-28T00:12:03.361Z,99221.81
2022-12-28T00:14:30.914Z,99222.03
2022-12-28T00:16:58.479Z,99215.31
2022-12-28T00:19:26.088Z,99216.09
2022-12-28T00:21:54.235Z,99205.59
2022-12-28T00:24:24.479Z,99205.50
2022-12-28T00:26:52.576Z,99201.66
2022-12-28T00:29:20.288Z,99188.75
2022-12-28T00:31:47.833Z,99198.78
2022-12-28T00:34:15.514Z,99181.84
2022-12-28T00:37:10.259Z,99174.16
2022-12-28T00:39:30.846Z,99178.34
2022-12-28T00:41:58.289Z,99170.44
2022-12-28T00:44:25.879Z,99167.63
2022-12-28T00:46:53.351Z,99170.47
2022-12-28T00:49:21.029Z,99176.28
2022-12-28T00:51:48.546Z,99176.09
2022-12-28T00:54:16.177Z,99173.28
2022-12-28T00:56:43.671Z,99162.94
2022-12-28T00:59:11.253Z,99158.84
2022-12-28T01:01:39.031Z,99175.03
2022-12-28T01:04:06.551Z,99163.91
2022-12-28T01:06:34.089Z,99169.97
2022-12-28T01:09:04.234Z,99156.44
2022-12-28T01:11:32.406Z,99167.53
2022-12-28T01:14:01.563Z,99157.88
2022-12-28T01:16:35.055Z,99149.44
2022-12-28T01:19:06.471Z,99153.13
2022-12-28T01:21:35.775Z,99150.28
2022-12-28T01:24:06.038Z,99154.00
2022-12-28T01:26:34.088Z,99141.75
2022-12-28T01:29:02.421Z,99150.78
2022-12-28T01:31:33.158Z,99137.06
2022-12-28T01:34:01.672Z,99135.13
2022-12-28T01:36:31.663Z,99130.94
2022-12-28T01:39:01.524Z,99131.72
2022-12-28T01:41:30.862Z,99139.22
2022-12-28T01:43:58.326Z,99134.16
2022-12-28T01:46:35.421Z,99120.63
2022-12-28T01:49:17.534Z,99126.78
2022-12-28T01:52:02.282Z,99126.34
2022-12-28T01:54:36.587Z,99123.34
2022-12-28T01:57:04.514Z,99122.00
2022-12-28T01:59:36.493Z,99116.44
2022-12-28T02:02:04.344Z,99111.75
2022-12-28T02:04:32.250Z,99122.34
2022-12-28T02:06:59.745Z,99118.44
2022-12-28T02:09:33.093Z,99113.47
2022-12-28T02:12:02.954Z,99114.56
2022-12-28T02:14:31.059Z,99108.97
2022-12-28T02:16:58.695Z,99115.09
2022-12-28T02:19:43.496Z,99112.84
2022-12-28T02:22:16.757Z,99116.53
2022-12-28T02:25:11.339Z,99105.53
2022-12-28T02:28:08.292Z,99116.50
2022-12-28T02:30:54.388Z,99117.69
2022-12-28T02:33:41.595Z,99118.06
2022-12-28T02:36:22.626Z,99115.44
2022-12-28T02:38:58.569Z,99111.06
2022-12-28T02:41:26.683Z,99115.75
2022-12-28T02:43:55.201Z,99116.53
2022-12-28T02:46:46.280Z,99125.72
2022-12-28T02:49:41.395Z,99122.84
2022-12-28T02:52:21.087Z,99119.75
2022-12-28T02:55:20.918Z,99114.38
2022-12-28T02:58:19.114Z,99111.63
2022-12-28T03:00:49.750Z,99110.56
2022-12-28T03:03:26.260Z,99111.63
2022-12-28T03:06:33.559Z,99098.69
2022-12-28T03:09:24.406Z,99104.88
2022-12-28T03:12:00.487Z,99109.31
2022-12-28T03:14:42.695Z,99099.28
2022-12-28T03:17:29.607Z,99107.66
2022-12-28T03:20:21.731Z,99105.13
2022-12-28T03:23:09.413Z,99111.16
2022-12-28T03:26:01.086Z,99106.28
2022-12-28T03:28:56.485Z,99103.56
2022-12-28T03:31:28.409Z,99106.09
2022-12-28T03:34:07.651Z,99109.50
2022-12-28T03:36:58.628Z,99104.31
2022-12-28T03:39:42.555Z,99107.63
2022-12-28T03:42:35.760Z,99101.84
2022-12-28T03:45:16.621Z,99098.19
2022-12-28T03:48:05.828Z,99077.16
2022-12-28T03:50:41.769Z,99094.19
2022-12-28T03:53:10.192Z,99090.91
2022-12-28T03:55:40.629Z,99093.16
2022-12-28T03:58:08.527Z,99086.34
2022-12-28T04:00:37.631Z,99088.22
2022-12-28T04:03:05.333Z,99083.16
2022-12-28T04:05:35.619Z,99085.78
2022-12-28T04:08:03.178Z,99083.41
2022-12-28T04:10:30.829Z,99083.72
2022-12-28T04:12:58.964Z,99078.28
2022-12-28T04:16:08.046Z,99087.28
2022-12-28T04:18:37.230Z,99083.81
2022-12-28T04:21:05.014Z,99078.28
2022-12-28T04:23:32.719Z,99076.66
2022-12-28T04:26:17.312Z,99074.63
2022-12-28T04:28:46.567Z,99081.13
2022-12-28T04:31:33.218Z,99077.81
2022-12-28T04:34:07.504Z,99073.16
2022-12-28T04:36:39.833Z,99066.34
2022-12-28T04:39:12.087Z,99064.50
2022-12-28T04:41:40.353Z,99072.38
2022-12-28T04:44:07.881Z,99070.63
2022-12-28T04:46:35.504Z,99076.75
2022-12-28T04:49:03.382Z,99063.41
2022-12-28T04:51:31.869Z,99073.63
2022-12-28T04:53:59.429Z,99055.75
2022-12-28T04:56:27.544Z,99068.56
2022-12-28T04:59:00.145Z,99064.38
2022-12-28T05:01:28.534Z,99061.38
2022-12-28T05:03:59.538Z,99063.91
2022-12-28T05:06:29.464Z,99059.72
2022-12-28T05:08:58.168Z,99059.84
2022-12-28T05:11:28.353Z,99061.59
2022-12-28T05:13:56.987Z,99068.78
2022-12-28T05:16:28.446Z,99069.91
2022-12-28T05:18:57.772Z,99071.78
2022-12-28T05:21:27.403Z,99062.91
2022-12-28T05:23:55.782Z,99060.66
2022-12-28T05:26:26.588Z,99066.09
2022-12-28T05:28:54.917Z,99057.31
2022-12-28T05:31:23.640Z,99063.38
2022-12-28T05:33:51.754Z,99065.38
2022-12-28T05:36:24.791Z,99067.41
2022-12-28T05:38:53.693Z,99069.78
2022-12-28T05:41:22.847Z,99070.53
2022-12-28T05:43:51.152Z,99070.03
2022-12-28T05:46:26.730Z,99072.66
2022-12-28T05:48:57.858Z,99060.63
2022-12-28T05:51:28.495Z,99075.00
2022-12-28T05:53:56.539Z,99076.94
2022-12-28T05:56:26.883Z,99075.31
2022-12-28T05:59:00.251Z,99066.06
2022-12-28T06:01:36.476Z,99080.84
2022-12-28T06:04:11.211Z,99078.34
2022-12-28T06:06:38.768Z,99084.66
2022-12-28T06:09:06.350Z,99089.78
2022-12-28T06:11:34.002Z,99089.72
2022-12-28T06:14:03.802Z,99083.00
2022-12-28T06:16:34.165Z,99085.22
2022-12-28T06:19:05.966Z,99082.59
2022-12-28T06:21:35.778Z,99094.66
2022-12-28T06:24:04.914Z,99089.34
2022-12-28T06:26:34.299Z,99098.97
2022-12-28T06:29:02.292Z,99097.47
2022-12-28T06:31:32.448Z,99086.97
2022-12-28T06:34:02.080Z,99090.59
2022-12-28T06:36:35.889Z,99091.63
2022-12-28T06:39:05.836Z,99099.59
2022-12-28T06:41:34.125Z,99093.94
2022-12-28T06:44:02.108Z,99094.22
2022-12-28T06:46:30.705Z,99095.00
2022-12-28T06:48:58.981Z,99097.44
2022-12-28T06:51:36.369Z,99092.63
2022-12-28T06:54:04.793Z,99090.09
2022-12-28T06:56:34.630Z,99088.56
2022-12-28T06:59:04.868Z,99096.25
2022-12-28T07:01:37.964Z,99097.50
2022-12-28T07:04:07.614Z,99099.22
2022-12-28T07:06:41.623Z,99098.38
2022-12-28T07:09:13.562Z,99104.31
2022-12-28T07:11:41.967Z,99101.69
2022-12-28T07:14:09.484Z,99103.44
2022-12-28T07:19:03.420Z,99104.31
2022-12-28T07:21:36.787Z,99101.16
2022-12-28T07:24:05.832Z,99102.94
2022-12-28T07:26:35.719Z,99105.34
2022-12-28T07:29:05.231Z,99108.16
2022-12-28T07:31:43.781Z,99095.66
2022-12-28T07:34:16.278Z,99104.50
2022-12-28T07:36:44.252Z,99094.75
2022-12-28T07:39:12.870Z,99098.94
2022-12-28T07:41:40.579Z,99110.81
2022-12-28T07:44:08.198Z,99112.66
2022-12-28T07:46:37.336Z,99108.28
2022-12-28T07:49:05.102Z,99114.31
2022-12-28T07:51:35.367Z,99109.06
2022-12-28T07:54:04.192Z,99114.13
2022-12-28T07:59:02.112Z,99097.34
2022-12-28T08:01:32.504Z,99090.72
2022-12-28T08:04:03.101Z,99095.78
2022-12-28T08:06:33.608Z,99093.00
2022-12-28T08:09:01.745Z,99096.69
2022-12-28T08:11:32.002Z,99093.16
2022-12-28T08:14:00.335Z,99087.13
2022-12-28T08:16:31.652Z,99087.06
2022-12-28T08:19:00.073Z,99083.56
2022-12-28T08:21:30.477Z,99090.72
2022-12-28T08:23:59.124Z,99091.50
2022-12-28T08:26:35.653Z,99094.91
2022-12-28T08:29:06.878Z,99104.09
2022-12-28T08:31:40.334Z,99099.31
2022-12-28T08:34:10.638Z,99095.97
2022-12-28T08:36:38.971Z,99091.63
2022-12-28T08:39:06.934Z,99096.22
2022-12-28T08:41:34.703Z,99094.41
2022-12-28T08:44:02.699Z,99092.66
2022-12-28T08:46:33.046Z,99102.09
2022-12-28T08:49:01.571Z,99100.63
2022-12-28T08:51:35.942Z,99100.88
2022-12-28T08:54:04.187Z,99103.50
2022-12-28T08:56:37.990Z,99099.56
2022-12-28T08:59:06.166Z,99102.09
2022-12-28T09:01:43.221Z,99095.28
2022-12-28T09:04:20.585Z,99100.44
2022-12-28T09:06:49.237Z,99087.59
2022-12-28T09:09:19.636Z,99091.81
2022-12-28T09:11:48.621Z,99088.47
2022-12-28T09:14:23.303Z,99089.34
2022-12-28T09:16:53.827Z,99097.22
2022-12-28T09:19:22.035Z,99097.31
2022-12-28T09:21:52.718Z,99102.28
2022-12-28T09:24:20.516Z,99096.34
2022-12-28T09:26:48.874Z,99099.56
2022-12-28T09:29:16.625Z,99092.75
2022-12-28T09:31:44.446Z,99100.56
2022-12-28T09:37:01.164Z,99103.84
2022-12-28T09:39:29.201Z,99100.56
2022-12-28T09:42:28.243Z,99089.34
2022-12-28T09:45:09.270Z,99097.66
2022-12-28T09:47:55.315Z,99093.56
2022-12-28T09:50:30.321Z,99096.88
2022-12-28T09:53:26.846Z,99102.38
2022-12-28T09:56:18.650Z,99102.91
2022-12-28T09:58:48.173Z,99100.38
2022-12-28T10:01:18.957Z,99107.88
2022-12-28T10:03:47.870Z,99097.84
2022-12-28T10:06:25.195Z,99101.16
2022-12-28T10:08:56.382Z,99101.31
2022-12-28T10:11:27.966Z,99106.38
2022-12-28T10:13:58.702Z,99108.84
2022-12-28T10:16:32.649Z,99112.25
2022-12-28T10:19:01.471Z,99117.41
2022-12-28T10:21:34.284Z,99121.72
2022-12-28T10:26:58.130Z,99116.03
2022-12-28T10:29:34.395Z,99111.31
2022-12-28T10:32:14.615Z,99113.66
2022-12-28T10:35:02.084Z,99108.13
2022-12-28T10:37:35.021Z,99118.03
2022-12-28T10:40:25.859Z,99121.00
2022-12-28T10:42:55.742Z,99109.13
2022-12-28T10:45:35.189Z,99111.56
2022-12-28T10:48:08.482Z,99126.94
2022-12-28T10:50:54.718Z,99130.00
2022-12-28T10:53:40.448Z,99123.78
2022-12-28T10:56:13.749Z,99122.91
2022-12-28T10:58:47.994Z,99129.66
2022-12-28T11:01:17.762Z,99131.41
2022-12-28T11:03:57.463Z,99127.56
2022-12-28T11:06:31.326Z,99132.28
2022-12-28T11:09:07.343Z,99128.19
2022-12-28T11:11:35.110Z,99133.59
2022-12-28T11:14:11.148Z,99132.44
2022-12-28T11:16:41.069Z,99123.69
2022-12-28T11:19:09.144Z,99128.88
2022-12-28T11:21:37.270Z,99122.81
2022-12-28T11:24:05.452Z,99116.00
2022-12-28T11:26:33.939Z,99119.78
2022-12-28T11:29:02.307Z,99119.78
2022-12-28T11:31:33.654Z,99118.28
2022-12-28T11:34:05.299Z,99116.81
2022-12-28T11:36:39.721Z,99117.59
2022-12-28T11:39:25.283Z,99125.13
2022-12-28T11:42:28.189Z,99122.84
2022-12-28T11:44:45.184Z,99118.56
2022-12-28T11:47:27.957Z,99120.28
2022-12-28T11:50:15.866Z,99120.56
2022-12-28T11:52:50.092Z,99112.97
2022-12-28T11:55:36.964Z,99123.78
2022-12-28T11:58:30.520Z,99122.22
2022-12-28T12:01:00.233Z,99125.78
2022-12-28T12:04:12.592Z,99132.97
2022-12-28T12:06:47.139Z,99135.59
2022-12-28T12:09:28.317Z,99142.22
2022-12-28T12:12:04.006Z,99142.97
2022-12-28T12:14:38.249Z,99156.41
2022-12-28T12:17:28.000Z,99165.41
2022-12-28T12:20:43.515Z,99166.06
2022-12-28T12:23:39.075Z,99165.19
2022-12-28T12:26:38.230Z,99163.31
2022-12-28T12:29:18.259Z,99166.25
2022-12-28T12:31:57.638Z,99171.94
2022-12-28T12:34:51.008Z,99172.03
2022-12-28T12:37:19.947Z,99179.25
2022-12-28T12:40:25.782Z,99183.84
2022-12-28T12:43:07.366Z,99183.06
2022-12-28T12:45:37.493Z,99195.75
2022-12-28T12:48:10.718Z,99201.59
2022-12-28T12:50:55.236Z,99195.66
2022-12-28T12:53:47.974Z,99209.41
2022-12-28T12:56:34.800Z,99215.53
2022-12-28T12:59:35.971Z,99217.31
2022-12-28T13:02:12.497Z,99221.59
2022-12-28T13:04:42.709Z,99222.78
2022-12-28T13:07:27.781Z,99226.66
2022-12-28T13:10:02.353Z,99216.63
2022-12-28T13:12:30.957Z,99220.75
2022-12-28T13:15:02.889Z,99227.56
2022-12-28T13:17:32.564Z,99220.81
2022-12-28T13:20:19.981Z,99222.78
2022-12-28T13:22:49.046Z,99230.00
2022-12-28T13:25:30.393Z,99222.78
2022-12-28T13:28:01.122Z,99229.91
2022-12-28T13:30:30.096Z,99238.06
2022-12-28T13:33:00.099Z,99233.59
2022-12-28T13:35:32.946Z,99235.34
2022-12-28T13:38:09.269Z,99241.00
2022-12-28T13:40:39.238Z,99247.03
2022-12-28T13:43:21.654Z,99253.06
2022-12-28T13:45:55.608Z,99250.25
2022-12-28T13:48:24.481Z,99243.06
2022-12-28T13:50:53.515Z,99247.22
2022-12-28T13:53:25.597Z,99255.72
2022-12-28T13:55:56.379Z,99254.06
2022-12-28T13:58:35.517Z,99260.97
2022-12-28T14:01:07.481Z,99253.75
2022-12-28T14:03:41.403Z,99252.78
2022-12-28T14:06:10.766Z,99272.34
2022-12-28T14:08:40.021Z,99273.03
2022-12-28T14:11:08.919Z,99269.22
2022-12-28T14:13:37.496Z,99266.09
2022-12-28T14:16:06.406Z,99272.63
2022-12-28T14:18:34.637Z,99269.69
2022-12-28T14:21:04.274Z,99272.91
2022-12-28T14:23:37.448Z,99268.31
2022-12-28T14:26:09.384Z,99271.63
2022-12-28T14:28:43.617Z,99277.88
2022-12-28T14:31:14.221Z,99268.91
2022-12-28T14:34:03.036Z,99272.59
2022-12-28T14:36:34.154Z,99273.06
2022-12-28T14:39:04.936Z,99275.41
2022-12-28T14:41:45.690Z,99277.56
2022-12-28T14:44:21.363Z,99272.50
2022-12-28T14:46:54.427Z,99273.38
2022-12-28T14:49:31.248Z,99287.41
2022-12-28T14:52:09.750Z,99290.91
2022-12-28T14:54:52.965Z,99292.56
2022-12-28T14:57:44.337Z,99295.31
2022-12-28T15:00:22.641Z,99291.69
2022-12-28T15:02:50.551Z,99297.34
2022-12-28T15:05:38.619Z,99303.88
2022-12-28T15:08:07.016Z,99298.31
2022-12-28T15:10:40.304Z,99296.47
2022-12-28T15:13:08.356Z,99312.72
2022-12-28T15:15:35.859Z,99305.13
2022-12-28T15:18:04.147Z,99299.97
2022-12-28T15:20:32.069Z,99304.16
2022-12-28T15:22:59.556Z,99307.56
2022-12-28T15:25:27.420Z,99310.97
2022-12-28T15:27:54.974Z,99310.09
2022-12-28T15:30:27.390Z,99302.91
2022-12-28T15:32:56.831Z,99313.91
2022-12-28T15:35:25.006Z,99318.00
2022-12-28T15:37:52.555Z,99318.72
2022-12-28T15:40:20.066Z,99322.91
2022-12-28T15:42:47.719Z,99326.53
2022-12-28T15:45:15.855Z,99327.31
2022-12-28T15:47:44.377Z,99322.03
2022-12-28T15:50:12.345Z,99326.13
2022-12-28T15:52:39.923Z,99322.81
2022-12-28T15:55:07.863Z,99338.97
2022-12-28T15:57:35.438Z,99340.53
2022-12-28T16:00:04.100Z,99345.59
2022-12-28T16:02:33.734Z,99338.78
2022-12-28T16:05:01.326Z,99349.69
2022-12-28T16:07:30.666Z,99352.31
2022-12-28T16:09:58.271Z,99354.94
2022-12-28T16:12:25.718Z,99354.16
2022-12-28T16:14:53.299Z,99349.22
2022-12-28T16:17:28.020Z,99349.09
2022-12-28T16:19:55.676Z,99353.19
2022-12-28T16:22:23.250Z,99351.44
2022-12-28T16:24:51.029Z,99349.69
2022-12-28T16:27:18.644Z,99348.91
2022-12-28T16:29:46.443Z,99351.84
2022-12-28T16:32:13.904Z,99357.69
2022-12-28T16:34:41.634Z,99357.97
2022-12-28T16:37:10.250Z,99344.25
2022-12-28T16:39:38.134Z,99352.81
2022-12-28T16:42:06.575Z,99353.59
2022-12-28T16:44:34.298Z,99357.56
2022-12-28T16:47:01.895Z,99356.91
2022-12-28T16:49:30.084Z,99356.91
2022-12-28T16:51:58.297Z,99353.41
2022-12-28T16:54:27.694Z,99359.72
2022-12-28T16:56:55.476Z,99360.59
2022-12-28T16:59:28.080Z,99366.63
2022-12-28T17:01:57.015Z,99354.66
2022-12-28T17:04:24.848Z,99357.97
2022-12-28T17:06:52.904Z,99354.44
2022-12-28T17:09:21.332Z,99357.28
2022-12-28T17:11:50.209Z,99347.72
2022-12-28T17:14:35.743Z,99358.06
2022-12-28T17:17:06.275Z,99371.31
2022-12-28T17:19:34.377Z,99358.25
2022-12-28T17:22:02.247Z,99364.88
2022-12-28T17:24:29.964Z,99365.56
2022-12-28T17:27:01.662Z,99372.56
2022-12-28T17:29:32.924Z,99368.38
2022-12-28T17:32:00.546Z,99359.03
2022-12-28T17:34:29.063Z,99363.22
2022-12-28T17:36:56.707Z,99365.84
2022-12-28T17:39:24.303Z,99375.19
2022-12-28T17:41:51.996Z,99376.75
2022-12-28T17:44:19.609Z,99375.88
2022-12-28T17:46:47.227Z,99379.28
2022-12-28T17:49:16.446Z,99392.78
2022-12-28T17:51:44.618Z,99383.88
2022-12-28T17:54:14.014Z,99397.41
2022-12-28T17:56:42.566Z,99391.56
2022-12-28T17:59:15.687Z,99390.97
2022-12-28T18:01:43.579Z,99393.31
2022-12-28T18:04:12.390Z,99394.41
2022-12-28T18:06:40.261Z,99403.75
2022-12-28T18:09:07.960Z,99410.56
2022-12-28T18:11:35.738Z,99413.97
2022-12-28T18:14:03.301Z,99404.91
2022-12-28T18:16:30.916Z,99413.09
2022-12-28T18:18:58.563Z,99401.22
2022-12-28T18:21:27.080Z,99415.03
2022-12-28T18:23:54.983Z,99415.91
2022-12-28T18:26:27.969Z,99404.25
2022-12-28T18:28:57.019Z,99414.13
2022-12-28T18:31:26.911Z,99402.88
2022-12-28T18:33:54.583Z,99404.03
2022-12-28T18:36:22.319Z,99407.66
2022-12-28T18:38:50.766Z,99396.94
2022-12-28T18:41:21.296Z,99399.69
2022-12-28T18:43:51.516Z,99406.59
2022-12-28T18:46:19.357Z,99399.78
2022-12-28T18:48:46.941Z,99404.19
2022-12-28T18:51:17.519Z,99407.69
2022-12-28T18:53:45.841Z,99404.06
2022-12-28T18:56:15.945Z,99403.31
2022-12-28T18:58:44.940Z,99408.56
2022-12-28T19:01:56.047Z,99406.25
2022-12-28T19:04:08.134Z,99420.28
2022-12-28T19:06:37.203Z,99418.91
2022-12-28T19:09:06.240Z,99423.09
2022-12-28T19:11:34.626Z,99420.25
2022-12-28T19:14:03.107Z,99422.88
2022-12-28T19:16:32.038Z,99422.13
2022-12-28T19:19:00.690Z,99416.81
2022-12-28T19:21:33.535Z,99420.56
2022-12-28T19:24:07.234Z,99429.03
2022-12-28T19:26:35.559Z,99423.28
2022-12-28T19:29:03.636Z,99428.56
2022-12-28T19:31:31.918Z,99430.41
2022-12-28T19:33:59.626Z,99429.81
2022-12-28T19:36:27.563Z,99435.00
2022-12-28T19:38:56.381Z,99439.84
2022-12-28T19:41:24.689Z,99443.25
2022-12-28T19:43:52.363Z,99438.09
2022-12-28T19:46:22.489Z,99445.78
2022-12-28T19:48:53.244Z,99440.84
2022-12-28T19:51:24.544Z,99448.63
2022-12-28T19:53:56.233Z,99456.41
2022-12-28T19:56:23.727Z,99448.81
2022-12-28T19:58:51.337Z,99459.53
2022-12-28T20:01:25.859Z,99465.13
2022-12-28T20:03:54.860Z,99462.78
2022-12-28T20:06:26.811Z,99470.78
2022-12-28T20:08:57.498Z,99463.38
2022-12-28T20:11:25.543Z,99469.03
2022-12-28T20:14:01.296Z,99460.66
2022-12-28T20:16:30.761Z,99466.28
2022-12-28T20:18:58.928Z,99467.56
2022-12-28T20:21:26.799Z,99469.91
2022-12-28T20:23:55.253Z,99466.50
2022-12-28T20:26:28.462Z,99465.72
2022-12-28T20:29:00.278Z,99481.97
2022-12-28T20:31:28.364Z,99467.69
2022-12-28T20:33:56.076Z,99478.09
2022-12-28T20:36:26.191Z,99478.00
2022-12-28T20:38:55.719Z,99481.31
2022-12-28T20:41:43.561Z,99484.63
2022-12-28T20:44:17.716Z,99484.81
2022-12-28T20:46:45.439Z,99479.56
2022-12-28T20:49:15.659Z,99481.22
2022-12-28T20:51:43.647Z,99483.84
2022-12-28T20:54:11.215Z,99483.84
2022-12-28T20:56:41.947Z,99478.88
2022-12-28T20:59:11.733Z,99483.06
2022-12-28T21:01:40.472Z,99479.06
2022-12-28T21:04:09.574Z,99472.47
2022-12-28T21:06:37.341Z,99479.84
2022-12-28T21:09:04.963Z,99481.59
2022-12-28T21:11:33.408Z,99486.78
2022-12-28T21:14:01.026Z,99483.47
2022-12-28T21:16:28.555Z,99488.63
2022-12-28T21:18:56.435Z,99488.72
2022-12-28T21:21:24.146Z,99486.28
2022-12-28T21:23:55.022Z,99490.56
2022-12-28T21:26:22.943Z,99493.31
2022-12-28T21:28:51.340Z,99499.84
2022-12-28T21:31:19.084Z,99492.03
2022-12-28T21:33:46.626Z,99498.00
2022-12-28T21:36:15.652Z,99501.50
2022-12-28T21:38:44.823Z,99506.88
2022-12-28T21:41:40.464Z,99497.53
2022-12-28T21:44:11.702Z,99506.97
2022-12-28T21:46:39.980Z,99504.34
2022-12-28T21:49:08.776Z,99498.50
2022-12-28T21:51:37.575Z,99505.53
2022-12-28T21:54:13.557Z,99506.78
2022-12-28T21:56:42.898Z,99507.56
2022-12-28T21:59:12.487Z,99506.69
2022-12-28T22:02:00.369Z,99512.53
2022-12-28T22:04:47.091Z,99507.84
2022-12-28T22:07:16.957Z,99514.66
2022-12-28T22:10:03.235Z,99507.94
2022-12-28T22:12:34.879Z,99517.31
2022-12-28T22:15:28.407Z,99520.03
2022-12-28T22:18:02.276Z,99519.16
2022-12-28T22:20:30.553Z,99521.69
2022-12-28T22:23:00.517Z,99519.16
2022-12-28T22:25:30.129Z,99519.94
2022-12-28T22:27:58.159Z,99524.16
2022-12-28T22:30:26.395Z,99521.47
2022-12-28T22:32:54.118Z,99524.16
2022-12-28T22:35:22.072Z,99520.59
2022-12-28T22:37:50.060Z,99518.66
2022-12-28T22:40:18.009Z,99524.81
2022-12-28T22:42:48.528Z,99519.72
2022-12-28T22:45:18.374Z,99526.78
2022-12-28T22:47:46.462Z,99523.38
2022-12-28T22:50:15.931Z,99519.94
2022-12-28T22:52:43.562Z,99522.69
2022-12-28T22:55:11.243Z,99524.44
2022-12-28T22:57:38.915Z,99526.56
2022-12-28T23:00:10.019Z,99534.06
2022-12-28T23:02:37.861Z,99529.09
2022-12-28T23:05:05.992Z,99536.03
2022-12-28T23:07:34.757Z,99533.41
2022-12-28T23:10:02.480Z,99530.38
2022-12-28T23:12:30.932Z,99536.22
2022-12-28T23:15:18.689Z,99541.19
2022-12-28T23:17:49.765Z,99536.91
2022-12-28T23:20:36.580Z,99545.19
2022-12-28T23:23:22.794Z,99544.28
2022-12-28T23:26:08.971Z,99554.44
2022-12-28T23:28:36.527Z,99549.59
2022-12-28T23:31:04.205Z,99559.50
2022-12-28T23:33:31.847Z,99549.16
2022-12-28T23:36:03.926Z,99559.81
2022-12-28T23:38:32.868Z,99558.84
2022-12-28T23:41:23.936Z,99559.72
2022-12-28T23:43:51.616Z,99548.09
2022-12-28T23:46:19.242Z,99557.91
2022-12-28T23:48:46.811Z,99543.19
2022-12-28T23:51:14.866Z,99552.94
2022-12-28T23:53:42.501Z,99564.28
2022-12-28T23:56:10.023Z,99555.72
2022-12-28T23:58:37.550Z,99558.69
